Aviation Digital Data Service (ADDS)

Output produced by METARs form (1654 UTC 17 October 2021)
found at http://aviationweather.gov/metar/data/
 
METAR text: ETMN 171620Z 21007KT 9999 FEW020 SCT029 BKN050 11/07 Q1018 BLU
Conditions at: ETMN (NORDHOLZ (GER-NA, DE) observed 1620 UTC 17 October 2021
Temperature: 11.0°C (52°F)
Dewpoint: 7.0°C (45°F) [RH = 76%]
Pressure (altimeter): 30.06 inches Hg (1018.0 mb)
Winds: from the SSW (210 degrees) at 8 MPH (7 knots; 3.6 m/s)
Visibility: 6 or more miles (10+ km)
Ceiling: 5000 feet AGL
Clouds: few clouds at 2000 feet AGL
scattered clouds at 2900 feet AGL
broken clouds at 5000 feet AGL
Weather: no significant weather observed at this time